Time;durP1;ratioP1;P1;durP2;ratioP2;P2;SDS_P1;SDS_P2;PMS_P1;PMS_P2;Temp;Humidity;BMP_temperature;BMP_pressure;BME280_temperature;BME280_humidity;BME280_pressure;Samples;Min_cycle;Max_cycle;Signal;HPM_P1;HPM_P2
2022/07/07 00:00:59;;;;;;;24.47;22.20;;;;;;;13.70;nan;99444.94;2049217;28;20276;-76
2022/07/07 00:02:00;;;;;;;25.25;23.00;;;;;;;13.67;nan;99438.31;2057325;28;20272;-76
2022/07/07 00:03:02;;;;;;;24.50;22.30;;;;;;;13.70;nan;99436.91;2065994;28;20200;-76
2022/07/07 00:04:02;;;;;;;24.98;22.52;;;;;;;13.68;nan;99441.78;2066122;28;20193;-76
2022/07/07 00:05:05;;;;;;;25.15;22.98;;;;;;;13.70;nan;99428.84;2065911;28;20192;-76
2022/07/07 00:06:05;;;;;;;25.10;22.65;;;;;;;13.65;nan;99426.31;2056628;28;20304;-76
2022/07/07 00:07:08;;;;;;;25.52;23.15;;;;;;;13.62;nan;99427.69;2057452;28;20174;-76
2022/07/07 00:08:09;;;;;;;25.63;23.05;;;;;;;13.61;nan;99428.00;2065949;28;20220;-76
2022/07/07 00:09:12;;;;;;;25.97;23.27;;;;;;;13.56;nan;99424.38;2065898;28;20204;-76
2022/07/07 00:10:16;;;;;;;25.23;23.13;;;;;;;13.52;nan;99434.13;2065856;28;20193;-76
2022/07/07 00:11:16;;;;;;;25.92;23.52;;;;;;;13.49;nan;99434.72;2065952;28;20725;-76
2022/07/07 00:12:18;;;;;;;24.50;22.40;;;;;;;13.46;nan;99427.28;2056441;28;20659;-76
2022/07/07 00:13:20;;;;;;;24.58;22.33;;;;;;;13.46;nan;99427.28;2057192;28;20575;-76
2022/07/07 00:14:23;;;;;;;23.88;21.85;;;;;;;13.42;nan;99420.97;2066039;28;20540;-76
2022/07/07 00:15:24;;;;;;;24.38;21.88;;;;;;;13.43;nan;99421.75;2056894;28;20197;-76
2022/07/07 00:16:27;;;;;;;25.03;22.77;;;;;;;13.40;nan;99425.84;2057283;28;20747;-76
2022/07/07 00:17:29;;;;;;;24.67;22.63;;;;;;;13.41;nan;99421.28;2065642;28;20196;-76
2022/07/07 00:18:31;;;;;;;25.23;23.10;;;;;;;13.37;nan;99426.44;2057141;28;20328;-76
2022/07/07 00:19:31;;;;;;;25.67;23.35;;;;;;;13.35;nan;99425.97;2057304;28;20672;-76
2022/07/07 00:20:33;;;;;;;24.63;22.50;;;;;;;13.32;nan;99417.75;2057841;28;20546;-76
2022/07/07 00:21:34;;;;;;;24.77;22.48;;;;;;;13.28;nan;99422.91;2056814;28;20233;-76
2022/07/07 00:22:36;;;;;;;25.47;23.17;;;;;;;13.25;nan;99418.97;2057271;28;20292;-75
2022/07/07 00:23:37;;;;;;;25.40;23.17;;;;;;;13.22;nan;99419.56;2057192;28;20289;-76
2022/07/07 00:24:43;;;;;;;25.98;23.20;;;;;;;13.20;nan;99424.41;2057739;28;20241;-76
2022/07/07 00:25:43;;;;;;;25.48;23.30;;;;;;;13.17;nan;99426.91;2057912;28;20193;-76
2022/07/07 00:26:45;;;;;;;25.63;23.07;;;;;;;13.11;nan;99422.75;2057756;28;20205;-76
2022/07/07 00:27:49;;;;;;;25.70;23.30;;;;;;;13.10;nan;99423.84;2058012;28;20216;-76
2022/07/07 00:28:50;;;;;;;25.85;23.42;;;;;;;13.04;nan;99419.72;2051294;28;20214;-76
2022/07/07 00:29:52;;;;;;;25.43;23.13;;;;;;;13.01;nan;99421.88;2058878;28;20232;-76
2022/07/07 00:30:52;;;;;;;25.73;23.42;;;;;;;13.00;nan;99432.91;2058414;28;20235;-76
2022/07/07 00:31:54;;;;;;;25.10;22.60;;;;;;;12.95;nan;99425.78;2058973;28;20186;-76
2022/07/07 00:32:54;;;;;;;25.35;22.95;;;;;;;12.89;nan;99416.28;2059396;28;20284;-75
2022/07/07 00:34:01;;;;;;;25.63;23.07;;;;;;;12.87;nan;99423.03;2060208;28;20648;-76
2022/07/07 00:35:05;;;;;;;25.10;22.95;;;;;;;12.83;nan;99416.69;2059513;28;20240;-76
2022/07/07 00:36:08;;;;;;;24.88;22.80;;;;;;;12.82;nan;99420.47;2059569;28;20189;-76
2022/07/07 00:37:09;;;;;;;26.38;23.70;;;;;;;12.81;nan;99418.88;2059581;28;20173;-76
2022/07/07 00:38:10;;;;;;;27.33;24.15;;;;;;;12.81;nan;99413.53;2059309;28;20612;-76
2022/07/07 00:39:12;;;;;;;26.67;24.17;;;;;;;12.84;nan;99418.28;2060045;28;20198;-76
2022/07/07 00:40:14;;;;;;;26.90;24.60;;;;;;;12.85;nan;99414.50;2059569;28;20209;-76
2022/07/07 00:41:16;;;;;;;26.35;23.77;;;;;;;12.87;nan;99415.78;2060381;28;20209;-76
2022/07/07 00:42:19;;;;;;;27.65;24.98;;;;;;;12.87;nan;99413.13;2059343;28;20186;-76
2022/07/07 00:43:22;;;;;;;26.20;23.60;;;;;;;12.88;nan;99417.38;2059412;28;20659;-76
2022/07/07 00:44:23;;;;;;;26.02;23.73;;;;;;;12.86;nan;99416.09;2060709;28;20217;-76
2022/07/07 00:45:25;;;;;;;26.57;23.97;;;;;;;12.83;nan;99411.34;2059411;28;20547;-76
2022/07/07 00:46:28;;;;;;;26.92;24.55;;;;;;;12.80;nan;99423.44;2060666;28;20197;-76
2022/07/07 00:47:28;;;;;;;27.10;24.80;;;;;;;12.77;nan;99410.66;2059465;28;20228;-76
2022/07/07 00:48:34;;;;;;;27.00;24.23;;;;;;;12.78;nan;99416.81;2059237;28;20182;-76
2022/07/07 00:49:38;;;;;;;26.10;23.65;;;;;;;12.75;nan;99410.16;2059318;28;20232;-76
2022/07/07 00:50:40;;;;;;;26.50;23.90;;;;;;;12.78;nan;99422.19;2058682;28;20198;-76
2022/07/07 00:51:41;;;;;;;27.42;24.90;;;;;;;12.78;nan;99416.81;2060213;28;20229;-76
2022/07/07 00:52:43;;;;;;;26.08;23.90;;;;;;;12.81;nan;99419.69;2058474;28;20194;-76
2022/07/07 00:53:43;;;;;;;26.70;24.20;;;;;;;12.79;nan;99421.88;2058780;28;20202;-76
2022/07/07 00:54:53;;;;;;;26.03;23.53;;;;;;;12.74;nan;99409.38;2060688;28;20598;-76
2022/07/07 00:55:55;;;;;;;25.30;23.02;;;;;;;12.74;nan;99413.94;2059437;28;20185;-76
2022/07/07 00:56:57;;;;;;;26.08;23.30;;;;;;;12.72;nan;99411.56;2059480;28;20216;-76
2022/07/07 00:57:58;;;;;;;26.73;24.00;;;;;;;12.68;nan;99412.44;2059403;28;20256;-76
2022/07/07 00:59:02;;;;;;;25.93;23.50;;;;;;;12.67;nan;99414.34;2059169;28;20193;-76
2022/07/07 01:00:06;;;;;;;25.92;23.33;;;;;;;12.64;nan;99408.81;2059606;28;20209;-76
2022/07/07 01:01:08;;;;;;;26.02;23.40;;;;;;;12.63;nan;99418.72;2059164;28;20633;-76
2022/07/07 01:02:09;;;;;;;26.63;23.58;;;;;;;12.60;nan;99418.53;2059558;28;20194;-76
2022/07/07 01:03:12;;;;;;;26.00;23.50;;;;;;;12.55;nan;99416.75;2059125;28;20197;-76
2022/07/07 01:04:13;;;;;;;24.70;22.48;;;;;;;12.53;nan;99415.47;2059110;28;20248;-76
2022/07/07 01:05:16;;;;;;;26.02;23.83;;;;;;;12.50;nan;99416.06;2059350;28;20194;-76
2022/07/07 01:06:17;;;;;;;26.67;24.13;;;;;;;12.53;nan;99412.78;2058713;28;20666;-76
2022/07/07 01:07:19;;;;;;;27.27;24.63;;;;;;;12.60;nan;99419.34;2059170;28;20186;-76
2022/07/07 01:08:19;;;;;;;27.60;25.13;;;;;;;12.65;nan;99418.41;2059027;28;20209;-76
2022/07/07 01:09:22;;;;;;;28.10;25.27;;;;;;;12.69;nan;99417.53;2059314;28;20192;-76
2022/07/07 01:10:25;;;;;;;29.15;25.73;;;;;;;12.73;nan;99417.72;2059127;28;20193;-76
2022/07/07 01:11:45;;;;;;;28.65;25.85;;;;;;;12.77;nan;99415.22;2058419;28;20277;-76
2022/07/07 01:12:45;;;;;;;27.95;25.05;;;;;;;12.77;nan;99418.72;2058466;28;20389;-76
2022/07/07 01:13:47;;;;;;;27.83;25.03;;;;;;;12.83;nan;99414.81;2058590;28;20225;-76
2022/07/07 01:14:47;;;;;;;27.45;24.95;;;;;;;12.86;nan;99421.47;2066417;28;20277;-76
2022/07/07 01:15:49;;;;;;;27.20;24.70;;;;;;;12.84;nan;99427.09;2066555;28;20196;-76
2022/07/07 01:16:51;;;;;;;26.55;24.20;;;;;;;12.83;nan;99422.03;2059233;28;20558;-76
2022/07/07 01:17:53;;;;;;;26.30;23.80;;;;;;;12.84;nan;99419.06;2061684;28;20239;-76
2022/07/07 01:18:54;;;;;;;26.45;24.00;;;;;;;12.81;nan;99419.69;2058437;28;20731;-76
2022/07/07 01:19:55;;;;;;;26.90;24.03;;;;;;;12.81;nan;99424.25;2050425;29;20570;-76
2022/07/07 01:20:57;;;;;;;26.90;24.40;;;;;;;12.81;nan;99424.25;2058008;28;20280;-76
2022/07/07 01:22:01;;;;;;;27.02;24.60;;;;;;;12.79;nan;99419.19;2067285;28;20268;-76
2022/07/07 01:23:05;;;;;;;27.25;24.52;;;;;;;12.77;nan;99418.72;2067089;28;20247;-76
2022/07/07 01:24:07;;;;;;;26.42;23.83;;;;;;;12.75;nan;99420.88;2067011;28;20220;-76
2022/07/07 01:25:11;;;;;;;28.25;25.35;;;;;;;12.74;nan;99414.72;2067007;28;20251;-76
2022/07/07 01:26:12;;;;;;;27.65;24.50;;;;;;;12.73;nan;99423.06;2058249;28;20201;-76
2022/07/07 01:27:15;;;;;;;27.90;25.23;;;;;;;12.71;nan;99414.53;2049691;28;20293;-76
2022/07/07 01:28:15;;;;;;;30.10;25.98;;;;;;;12.70;nan;99418.31;2058674;28;20565;-76
2022/07/07 01:29:17;;;;;;;27.67;25.03;;;;;;;12.71;nan;99425.25;2067116;28;20296;-76
2022/07/07 01:30:19;;;;;;;29.65;26.60;;;;;;;12.68;nan;99423.16;2067000;28;20193;-76
2022/07/07 01:31:23;;;;;;;32.55;25.15;;;;;;;12.69;nan;99422.09;2066969;28;20240;-76
2022/07/07 01:32:25;;;;;;;27.55;25.15;;;;;;;12.65;nan;99427.25;2066986;28;20208;-76
2022/07/07 01:33:27;;;;;;;27.67;25.05;;;;;;;12.66;nan;99420.78;2066974;28;20607;-77
2022/07/07 01:34:28;;;;;;;27.40;24.60;;;;;;;12.65;nan;99426.44;2067254;28;20279;-76
2022/07/07 01:35:30;;;;;;;27.40;25.00;;;;;;;12.63;nan;99423.28;2058293;28;20190;-76
2022/07/07 01:36:32;;;;;;;26.10;23.85;;;;;;;12.64;nan;99425.66;2058076;28;20221;-76
2022/07/07 01:37:34;;;;;;;29.98;24.75;;;;;;;12.65;nan;99429.13;2066943;28;20550;-76
2022/07/07 01:38:38;;;;;;;27.27;24.88;;;;;;;12.63;nan;99423.28;2057507;28;20198;-76
2022/07/07 01:39:41;;;;;;;26.70;24.40;;;;;;;12.64;nan;99430.22;2057866;28;20197;-76
2022/07/07 01:40:44;;;;;;;28.05;24.83;;;;;;;12.62;nan;99427.84;2058275;28;20602;-76
2022/07/07 01:41:46;;;;;;;27.17;24.80;;;;;;;12.61;nan;99430.84;2058280;28;20277;-76
2022/07/07 01:42:46;;;;;;;27.15;24.38;;;;;;;12.58;nan;99421.50;2067023;28;20225;-76
2022/07/07 01:43:48;;;;;;;27.03;24.47;;;;;;;12.56;nan;99422.91;2057697;28;20246;-76
2022/07/07 01:44:51;;;;;;;26.02;23.63;;;;;;;12.56;nan;99423.69;2058276;28;20272;-76
2022/07/07 01:45:54;;;;;;;26.70;23.88;;;;;;;12.54;nan;99430.44;2067035;28;20224;-76
2022/07/07 01:46:55;;;;;;;25.00;22.58;;;;;;;12.51;nan;99423.00;2058195;28;20202;-76
2022/07/07 01:47:56;;;;;;;26.33;24.03;;;;;;;12.49;nan;99422.50;2058365;28;20672;-76
2022/07/07 01:48:57;;;;;;;26.38;23.98;;;;;;;12.47;nan;99419.34;2066804;28;20254;-76
2022/07/07 01:49:59;;;;;;;26.60;24.10;;;;;;;12.45;nan;99415.09;2066855;28;20189;-76
2022/07/07 01:50:59;;;;;;;26.85;24.05;;;;;;;12.42;nan;99422.91;2066243;28;20224;-76
2022/07/07 01:52:02;;;;;;;26.50;24.13;;;;;;;12.40;nan;99425.88;2066854;28;20177;-76
2022/07/07 01:53:05;;;;;;;27.27;24.40;;;;;;;12.38;nan;99414.69;2058145;28;20679;-76
2022/07/07 01:54:09;;;;;;;26.70;24.50;;;;;;;12.40;nan;99415.16;2058566;28;20252;-76
2022/07/07 01:55:10;;;;;;;27.05;24.35;;;;;;;12.36;nan;99414.19;2066836;28;20197;-76
2022/07/07 01:56:11;;;;;;;26.90;24.63;;;;;;;12.35;nan;99420.66;2066765;28;20189;-76
2022/07/07 01:57:13;;;;;;;27.83;25.20;;;;;;;12.34;nan;99411.03;2058116;28;20193;-76
2022/07/07 01:58:15;;;;;;;27.88;24.92;;;;;;;12.32;nan;99417.75;2050172;28;20285;-76
2022/07/07 01:59:18;;;;;;;27.30;24.60;;;;;;;12.29;nan;99408.44;2058856;28;20549;-76
2022/07/07 02:00:20;;;;;;;27.33;24.90;;;;;;;12.26;nan;99408.28;2066745;28;20243;-76
2022/07/07 02:01:22;;;;;;;27.60;25.08;;;;;;;12.27;nan;99416.00;2057332;28;20229;-76
2022/07/07 02:02:22;;;;;;;27.40;25.08;;;;;;;12.24;nan;99408.53;2058193;28;20649;-76
2022/07/07 02:03:25;;;;;;;28.23;25.77;;;;;;;12.24;nan;99408.53;2058034;28;20523;-76
2022/07/07 02:04:29;;;;;;;28.95;25.65;;;;;;;12.25;nan;99412.84;2050274;28;20282;-76
2022/07/07 02:05:32;;;;;;;27.50;25.10;;;;;;;12.24;nan;99407.75;2050417;28;20198;-76
2022/07/07 02:06:34;;;;;;;26.92;24.52;;;;;;;12.20;nan;99410.25;2057994;28;20225;-76
2022/07/07 02:07:36;;;;;;;27.57;25.03;;;;;;;12.21;nan;99411.03;2066928;28;20193;-76
2022/07/07 02:08:37;;;;;;;26.13;23.80;;;;;;;12.19;nan;99413.22;2066696;28;20197;-76
2022/07/07 02:09:40;;;;;;;25.67;23.37;;;;;;;12.14;nan;99401.50;2057976;28;20197;-76
2022/07/07 02:12:02;;;;;;;26.80;24.60;;;;;;;12.14;nan;99408.75;2060772;28;20177;-76
2022/07/07 02:13:05;;;;;;;26.50;24.10;;;;;;;12.16;nan;99414.59;2066646;28;20201;-76
2022/07/07 02:14:07;;;;;;;26.88;24.25;;;;;;;12.14;nan;99412.22;2066880;28;20528;-75
2022/07/07 02:15:08;;;;;;;27.02;24.48;;;;;;;12.12;nan;99409.06;2066830;28;20220;-76
2022/07/07 02:16:11;;;;;;;25.93;23.63;;;;;;;12.13;nan;99417.88;2066807;28;20196;-76
2022/07/07 02:17:12;;;;;;;26.05;23.55;;;;;;;12.10;nan;99415.78;2067100;28;20224;-76
2022/07/07 02:18:15;;;;;;;26.23;23.90;;;;;;;12.10;nan;99415.78;2057865;28;20750;-76
2022/07/07 02:19:16;;;;;;;25.75;23.60;;;;;;;12.08;nan;99402.72;2058660;28;20424;-76
2022/07/07 02:20:18;;;;;;;25.70;23.50;;;;;;;12.08;nan;99415.31;2067190;28;20185;-76
2022/07/07 02:21:21;;;;;;;27.23;24.50;;;;;;;12.07;nan;99405.66;2065994;28;20279;-76
2022/07/07 02:22:22;;;;;;;25.60;23.40;;;;;;;12.00;nan;99408.75;2067086;28;20189;-76
2022/07/07 02:23:23;;;;;;;26.27;24.02;;;;;;;12.05;nan;99418.56;2057953;28;20296;-76
2022/07/07 02:24:24;;;;;;;26.70;24.17;;;;;;;12.03;nan;99405.47;2057986;28;20190;-76
2022/07/07 02:25:27;;;;;;;26.88;24.17;;;;;;;12.02;nan;99411.91;2066902;28;20659;-76
2022/07/07 02:26:29;;;;;;;27.55;24.95;;;;;;;12.06;nan;99410.22;2057874;28;20194;-76
2022/07/07 02:27:30;;;;;;;28.25;25.65;;;;;;;12.08;nan;99415.31;2050010;28;20222;-76
2022/07/07 02:28:33;;;;;;;26.80;24.40;;;;;;;12.09;nan;99417.69;2058527;28;20178;-76
2022/07/07 02:29:34;;;;;;;26.70;24.08;;;;;;;12.09;nan;99412.31;2066640;28;20272;-76
2022/07/07 02:30:35;;;;;;;27.27;24.63;;;;;;;12.08;nan;99413.41;2067081;28;20216;-76
2022/07/07 02:31:36;;;;;;;28.63;25.93;;;;;;;12.08;nan;99412.63;2066749;28;20189;-76
2022/07/07 02:32:37;;;;;;;27.83;25.15;;;;;;;12.08;nan;99409.97;2066729;28;20726;-76
2022/07/07 02:33:39;;;;;;;26.37;23.97;;;;;;;12.15;nan;99418.34;2067012;28;20561;-76
2022/07/07 02:34:41;;;;;;;26.13;23.73;;;;;;;12.14;nan;99411.41;2066546;28;20197;-75
2022/07/07 02:35:41;;;;;;;27.40;24.77;;;;;;;12.11;nan;99406.69;2067007;28;20523;-76
2022/07/07 02:36:44;;;;;;;27.23;24.53;;;;;;;12.11;nan;99404.78;2066133;28;20247;-76
2022/07/07 02:37:47;;;;;;;25.92;23.73;;;;;;;12.08;nan;99401.94;2058269;28;20198;-75
2022/07/07 02:38:50;;;;;;;26.90;24.47;;;;;;;12.05;nan;99397.94;2049808;29;20215;-76
2022/07/07 02:39:52;;;;;;;27.65;25.13;;;;;;;12.07;nan;99398.44;2058032;28;20589;-76
2022/07/07 02:40:55;;;;;;;27.80;25.30;;;;;;;12.07;nan;99397.66;2067047;28;20193;-75
2022/07/07 02:41:58;;;;;;;28.00;25.15;;;;;;;12.08;nan;99401.94;2057686;28;20221;-76
2022/07/07 02:42:58;;;;;;;27.65;24.50;;;;;;;12.06;nan;99404.88;2057914;28;20233;-76
2022/07/07 02:44:00;;;;;;;27.73;25.07;;;;;;;12.09;nan;99406.19;2067033;28;20243;-76
2022/07/07 02:45:00;;;;;;;27.15;24.58;;;;;;;12.09;nan;99409.66;2057705;28;20212;-76
2022/07/07 02:46:03;;;;;;;27.03;24.53;;;;;;;12.08;nan;99405.41;2058648;28;20190;-76
2022/07/07 02:47:04;;;;;;;27.85;25.00;;;;;;;12.06;nan;99402.19;2057000;28;20256;-76
2022/07/07 02:48:07;;;;;;;26.97;24.37;;;;;;;12.08;nan;99408.06;2049168;29;20265;-76
2022/07/07 02:49:09;;;;;;;26.52;23.95;;;;;;;12.07;nan;99409.13;2049976;28;20661;-75
2022/07/07 02:50:11;;;;;;;27.77;24.80;;;;;;;12.10;nan;99397.06;2057381;28;20276;-76
2022/07/07 02:51:12;;;;;;;27.33;24.42;;;;;;;12.11;nan;99398.66;2057679;28;20240;-76
2022/07/07 02:52:13;;;;;;;27.20;24.70;;;;;;;12.12;nan;99403.69;2057923;28;20204;-76
2022/07/07 02:53:15;;;;;;;27.85;25.00;;;;;;;12.09;nan;99398.16;2049280;29;20206;-75
2022/07/07 02:54:17;;;;;;;27.67;24.98;;;;;;;12.06;nan;99393.38;2058484;28;20189;-76
2022/07/07 02:55:17;;;;;;;25.75;23.42;;;;;;;12.04;nan;99395.56;2066309;28;20671;-76
2022/07/07 02:56:21;;;;;;;26.83;24.47;;;;;;;12.03;nan;99388.66;2057673;28;20676;-76
2022/07/07 02:57:21;;;;;;;27.70;24.95;;;;;;;12.03;nan;99392.13;2058510;28;20300;-76
2022/07/07 02:58:25;;;;;;;25.93;23.53;;;;;;;12.03;nan;99394.00;2057650;28;20201;-76
2022/07/07 02:59:26;;;;;;;26.92;24.35;;;;;;;12.01;nan;99394.28;2058655;28;20196;-75
2022/07/07 03:00:29;;;;;;;26.30;24.00;;;;;;;12.01;nan;99396.97;2066360;28;20189;-76
2022/07/07 03:01:29;;;;;;;29.20;24.27;;;;;;;12.00;nan;99394.59;2066293;28;20204;-76
2022/07/07 03:02:32;;;;;;;25.80;23.60;;;;;;;11.97;nan;99389.81;2057748;28;20202;-76
2022/07/07 03:03:34;;;;;;;26.00;23.60;;;;;;;11.93;nan;99400.34;2057992;28;20190;-76
2022/07/07 03:04:38;;;;;;;26.00;23.63;;;;;;;11.89;nan;99394.75;2066284;28;20190;-76
2022/07/07 03:05:40;;;;;;;26.05;23.75;;;;;;;11.89;nan;99388.63;2057181;28;20202;-76
2022/07/07 03:06:42;;;;;;;27.00;24.27;;;;;;;11.90;nan;99390.22;2049334;28;20226;-76
2022/07/07 03:07:42;;;;;;;26.30;23.83;;;;;;;11.89;nan;99389.41;2057313;28;20230;-76
2022/07/07 03:08:44;;;;;;;26.00;23.70;;;;;;;11.87;nan;99383.59;2057619;28;20201;-75
2022/07/07 03:09:47;;;;;;;25.25;23.25;;;;;;;11.87;nan;99388.94;2066248;28;20242;-76
2022/07/07 03:10:48;;;;;;;26.30;23.48;;;;;;;11.86;nan;99394.56;2057471;28;20197;-76
2022/07/07 03:11:53;;;;;;;26.10;23.90;;;;;;;11.86;nan;99382.00;2057585;28;20561;-76
2022/07/07 03:12:55;;;;;;;26.50;24.08;;;;;;;11.85;nan;99379.63;2066215;28;20189;-76
2022/07/07 03:13:55;;;;;;;26.60;24.20;;;;;;;11.85;nan;99383.09;2066201;28;20193;-76
2022/07/07 03:14:57;;;;;;;27.13;24.43;;;;;;;11.85;nan;99376.94;2066357;28;20189;-76
2022/07/07 03:15:58;;;;;;;26.65;23.83;;;;;;;11.84;nan;99384.19;2066160;28;20199;-76
2022/07/07 03:17:01;;;;;;;26.77;24.20;;;;;;;11.87;nan;99380.13;2066026;28;20213;-76
2022/07/07 03:18:03;;;;;;;27.40;24.35;;;;;;;11.84;nan;99376.16;2066792;28;20252;-75
2022/07/07 03:19:05;;;;;;;27.23;24.75;;;;;;;11.85;nan;99377.75;2066151;28;20243;-76
2022/07/07 03:20:08;;;;;;;28.27;25.52;;;;;;;11.86;nan;99378.53;2066221;28;20193;-76
2022/07/07 03:21:09;;;;;;;28.20;25.33;;;;;;;11.90;nan;99384.88;2065799;28;20251;-75
2022/07/07 03:22:10;;;;;;;28.15;25.30;;;;;;;11.92;nan;99382.72;2057303;28;20271;-76
2022/07/07 03:23:11;;;;;;;29.87;25.40;;;;;;;11.98;nan;99397.53;2049328;29;20206;-76
2022/07/07 03:24:12;;;;;;;27.58;24.88;;;;;;;12.02;nan;99403.09;2057370;28;20201;-76
2022/07/07 03:25:14;;;;;;;26.43;23.90;;;;;;;12.16;nan;99409.22;2056728;28;20248;-76
2022/07/07 03:26:15;;;;;;;25.40;23.20;;;;;;;12.23;nan;99409.63;2058170;28;20273;-76
2022/07/07 03:27:19;;;;;;;26.48;24.02;;;;;;;12.23;nan;99414.19;2056523;28;20198;-76
2022/07/07 03:28:20;;;;;;;26.75;24.38;;;;;;;12.17;nan;99405.50;2058290;28;20202;-76
2022/07/07 03:29:22;;;;;;;25.98;23.63;;;;;;;12.18;nan;99396.38;2057425;28;20190;-76
2022/07/07 03:30:22;;;;;;;27.17;24.30;;;;;;;12.16;nan;99409.22;2049441;28;20590;-76
2022/07/07 03:31:24;;;;;;;25.97;23.57;;;;;;;12.14;nan;99409.53;2057292;28;20223;-75
2022/07/07 03:32:26;;;;;;;26.08;23.77;;;;;;;12.18;nan;99412.44;2057676;28;20667;-76
2022/07/07 03:33:31;;;;;;;25.00;22.90;;;;;;;12.18;nan;99412.44;2066619;28;20200;-76
2022/07/07 03:34:32;;;;;;;25.70;23.42;;;;;;;12.21;nan;99409.16;2066101;28;20196;-76
2022/07/07 03:35:34;;;;;;;26.47;24.00;;;;;;;12.19;nan;99407.88;2057388;28;20225;-76
2022/07/07 03:36:35;;;;;;;25.38;23.02;;;;;;;12.16;nan;99409.22;2057718;28;20584;-76
2022/07/07 03:37:36;;;;;;;27.02;24.45;;;;;;;12.18;nan;99411.63;2066013;28;20227;-76
2022/07/07 03:38:38;;;;;;;25.93;23.73;;;;;;;12.17;nan;99405.50;2057933;28;20206;-76
2022/07/07 03:39:39;;;;;;;26.50;23.92;;;;;;;12.19;nan;99407.88;2049392;28;20485;-75
2022/07/07 03:40:41;;;;;;;26.13;23.63;;;;;;;12.19;nan;99405.97;2048954;29;20681;-76
2022/07/07 03:41:42;;;;;;;25.38;23.08;;;;;;;12.21;nan;99393.09;2057958;28;20202;-76
2022/07/07 03:42:45;;;;;;;27.45;23.38;;;;;;;12.25;nan;99390.59;2065984;28;20189;-76
2022/07/07 03:43:46;;;;;;;25.48;23.38;;;;;;;12.31;nan;99384.84;2066255;28;20200;-75
2022/07/07 03:44:47;;;;;;;25.33;22.83;;;;;;;12.35;nan;99385.88;2057530;28;20193;-76
2022/07/07 03:45:50;;;;;;;25.33;22.90;;;;;;;12.39;nan;99386.84;2048999;28;20317;-76
2022/07/07 03:46:52;;;;;;;24.27;22.15;;;;;;;12.38;nan;99382.56;2058507;28;20190;-76
2022/07/07 03:47:54;;;;;;;24.30;21.85;;;;;;;12.41;nan;99384.66;2057221;28;20250;-75
2022/07/07 03:48:57;;;;;;;25.40;23.15;;;;;;;12.42;nan;99390.78;2057649;28;20221;-75
2022/07/07 03:49:57;;;;;;;25.52;23.13;;;;;;;12.40;nan;99390.31;2066151;28;20227;-75
2022/07/07 03:50:59;;;;;;;26.43;23.70;;;;;;;12.40;nan;99385.75;2065358;28;20193;-75
2022/07/07 03:51:59;;;;;;;25.88;23.58;;;;;;;12.40;nan;99393.75;2066119;28;20518;-76
2022/07/07 03:53:01;;;;;;;25.83;23.63;;;;;;;12.38;nan;99385.25;2057334;28;20219;-76
2022/07/07 03:54:04;;;;;;;26.40;23.67;;;;;;;12.38;nan;99387.94;2057326;28;20280;-76
2022/07/07 03:55:10;;;;;;;24.73;22.52;;;;;;;12.40;nan;99382.28;2066078;28;20181;-75
2022/07/07 03:56:11;;;;;;;25.63;23.35;;;;;;;12.42;nan;99383.56;2066151;28;20631;-76
2022/07/07 03:57:13;;;;;;;24.70;22.47;;;;;;;12.39;nan;99378.81;2057316;28;20538;-75
2022/07/07 03:58:15;;;;;;;24.75;22.27;;;;;;;12.42;nan;99382.75;2057315;28;20224;-76
2022/07/07 03:59:17;;;;;;;25.10;22.95;;;;;;;12.42;nan;99380.09;2057246;28;20196;-76
2022/07/07 04:00:18;;;;;;;25.08;23.08;;;;;;;12.44;nan;99380.59;2049069;29;20637;-75
2022/07/07 04:01:21;;;;;;;25.40;22.58;;;;;;;12.46;nan;99381.09;2057235;28;20205;-76
2022/07/07 04:02:22;;;;;;;24.38;22.13;;;;;;;12.49;nan;99380.47;2056955;28;20244;-76
2022/07/07 04:03:24;;;;;;;24.33;22.08;;;;;;;12.50;nan;99386.63;2066097;28;20193;-76
2022/07/07 04:04:27;;;;;;;25.48;22.92;;;;;;;12.55;nan;99391.88;2066133;28;20189;-76
2022/07/07 04:05:28;;;;;;;24.30;22.05;;;;;;;12.60;nan;99386.41;2066638;28;20196;-76
2022/07/07 04:06:31;;;;;;;24.07;21.83;;;;;;;12.60;nan;99391.78;2065543;28;20221;-76
2022/07/07 04:07:33;;;;;;;24.65;22.17;;;;;;;12.65;nan;99388.97;2066368;28;20606;-76
2022/07/07 04:08:34;;;;;;;24.13;22.02;;;;;;;12.69;nan;99382.72;2065860;28;20200;-76
2022/07/07 04:09:36;;;;;;;23.92;21.73;;;;;;;12.78;nan;99384.69;2057188;28;20236;-76
2022/07/07 04:10:39;;;;;;;24.13;21.60;;;;;;;12.82;nan;99383.75;2058094;28;20353;-76
2022/07/07 04:11:41;;;;;;;24.10;21.77;;;;;;;12.85;nan;99383.16;2065825;28;20283;-76
2022/07/07 04:12:43;;;;;;;25.45;23.02;;;;;;;12.88;nan;99379.09;2066317;28;20189;-75
2022/07/07 04:13:45;;;;;;;23.75;21.75;;;;;;;12.93;nan;99377.06;2057270;28;20224;-76
2022/07/07 04:14:47;;;;;;;23.88;21.70;;;;;;;13.01;nan;99383.59;2057384;28;20189;-75
2022/07/07 04:15:50;;;;;;;23.65;21.45;;;;;;;13.01;nan;99379.03;2057686;28;20240;-76
2022/07/07 04:16:52;;;;;;;24.63;22.48;;;;;;;13.02;nan;99382.50;2057771;28;20209;-76
2022/07/07 04:17:53;;;;;;;24.52;22.08;;;;;;;13.06;nan;99386.16;2065690;28;20228;-75
2022/07/07 04:18:55;;;;;;;24.95;22.27;;;;;;;13.06;nan;99374.66;2066327;28;20241;-76
2022/07/07 04:19:57;;;;;;;22.92;21.00;;;;;;;13.05;nan;99381.13;2065835;28;20223;-76
2022/07/07 04:20:58;;;;;;;22.67;20.67;;;;;;;13.06;nan;99378.13;2057082;28;20201;-75
2022/07/07 04:21:59;;;;;;;24.10;22.20;;;;;;;13.06;nan;99377.34;2057388;28;20178;-76
2022/07/07 04:23:00;;;;;;;23.90;21.70;;;;;;;13.08;nan;99383.19;2065805;28;20228;-76
2022/07/07 04:24:03;;;;;;;24.30;21.90;;;;;;;13.10;nan;99378.31;2057735;28;20201;-76
2022/07/07 04:25:05;;;;;;;24.65;22.00;;;;;;;13.08;nan;99370.56;2057614;28;20256;-76
2022/07/07 04:26:07;;;;;;;24.65;22.45;;;;;;;13.10;nan;99372.94;2057706;28;20265;-76
2022/07/07 04:27:08;;;;;;;23.67;21.60;;;;;;;13.11;nan;99374.53;2057192;28;20276;-76
2022/07/07 04:28:10;;;;;;;24.30;22.10;;;;;;;13.11;nan;99379.88;2065842;28;20272;-76
2022/07/07 04:29:12;;;;;;;23.33;21.52;;;;;;;13.14;nan;99379.28;2066353;28;20561;-76
2022/07/07 04:30:14;;;;;;;23.48;21.58;;;;;;;13.16;nan;99377.09;2056717;28;20201;-76
2022/07/07 04:31:15;;;;;;;23.65;21.70;;;;;;;13.11;nan;99369.16;2058390;28;20224;-76
2022/07/07 04:32:16;;;;;;;24.30;22.00;;;;;;;13.07;nan;99376.25;2065849;28;20220;-75
2022/07/07 04:33:17;;;;;;;23.73;21.83;;;;;;;13.08;nan;99373.25;2065775;28;20276;-76
2022/07/07 04:34:22;;;;;;;24.83;22.27;;;;;;;13.06;nan;99374.66;2065779;28;20200;-75
2022/07/07 04:35:25;;;;;;;24.08;21.88;;;;;;;13.07;nan;99373.56;2057155;28;20202;-75
2022/07/07 04:36:27;;;;;;;24.58;22.27;;;;;;;13.06;nan;99372.00;2049016;28;20222;-76
2022/07/07 04:37:29;;;;;;;24.48;21.90;;;;;;;13.06;nan;99366.63;2057217;28;20225;-76
2022/07/07 04:38:30;;;;;;;24.25;21.95;;;;;;;13.07;nan;99366.31;2065962;28;20185;-76
2022/07/07 04:39:31;;;;;;;25.35;22.45;;;;;;;13.05;nan;99370.41;2065801;28;20220;-75
2022/07/07 04:40:33;;;;;;;28.23;22.60;;;;;;;13.05;nan;99370.41;2066012;28;20196;-75
2022/07/07 04:41:33;;;;;;;24.08;22.08;;;;;;;13.02;nan;99375.25;2057217;28;20589;-75
2022/07/07 04:42:35;;;;;;;24.73;22.53;;;;;;;13.09;nan;99376.72;2049061;28;20222;-75
2022/07/07 04:43:37;;;;;;;24.27;22.20;;;;;;;13.08;nan;99380.50;2057068;28;20217;-75
2022/07/07 04:44:40;;;;;;;24.95;22.33;;;;;;;13.06;nan;99372.00;2057463;28;20672;-76
2022/07/07 04:45:41;;;;;;;24.25;22.35;;;;;;;13.06;nan;99377.34;2065709;28;20600;-75
2022/07/07 04:46:42;;;;;;;25.30;23.00;;;;;;;13.04;nan;99379.53;2065735;28;20255;-75
2022/07/07 04:47:43;;;;;;;25.55;23.17;;;;;;;13.04;nan;99371.50;2065719;28;20280;-76
2022/07/07 04:48:45;;;;;;;24.23;22.33;;;;;;;13.04;nan;99377.66;2065747;28;20217;-76
2022/07/07 04:49:46;;;;;;;24.15;21.80;;;;;;;13.05;nan;99371.19;2057399;28;20271;-76
2022/07/07 04:50:47;;;;;;;24.13;22.13;;;;;;;13.07;nan;99368.22;2057108;28;20193;-76
2022/07/07 04:51:48;;;;;;;23.85;21.75;;;;;;;13.10;nan;99376.41;2056905;28;20722;-76
2022/07/07 04:52:50;;;;;;;23.80;21.53;;;;;;;13.14;nan;99376.63;2050211;29;20577;-76
2022/07/07 04:53:50;;;;;;;24.52;21.98;;;;;;;13.16;nan;99361.81;2057106;28;20189;-76